createdAt,value
2023-02-02T00:00:30.245Z,71.53
2023-02-02T00:02:58.693Z,72.30
2023-02-02T00:05:27.428Z,71.13
2023-02-02T00:07:57.218Z,68.80
2023-02-02T00:10:25.882Z,68.00
2023-02-02T00:12:57.989Z,68.27
2023-02-02T00:15:26.612Z,68.33
2023-02-02T00:17:55.048Z,67.47
2023-02-02T00:20:24.117Z,68.03
2023-02-02T00:22:52.614Z,67.57
2023-02-02T00:25:22.639Z,64.70
2023-02-02T00:27:51.160Z,67.37
2023-02-02T00:30:19.593Z,66.07
2023-02-02T00:32:50.709Z,64.07
2023-02-02T00:35:19.117Z,66.00
2023-02-02T00:37:47.584Z,66.37
2023-02-02T00:40:16.149Z,66.90
2023-02-02T00:42:49.210Z,65.93
2023-02-02T00:45:16.871Z,66.17
2023-02-02T00:47:46.251Z,69.30
2023-02-02T00:50:15.699Z,67.70
2023-02-02T00:52:44.319Z,70.40
2023-02-02T00:55:13.845Z,72.73
2023-02-02T00:57:44.381Z,66.97
2023-02-02T01:00:15.863Z,64.03
2023-02-02T01:02:44.398Z,66.00
2023-02-02T01:05:13.313Z,66.00
2023-02-02T01:07:41.708Z,65.63
2023-02-02T01:10:12.906Z,68.43
2023-02-02T01:12:41.422Z,64.17
2023-02-02T01:15:10.384Z,65.13
2023-02-02T01:17:40.220Z,57.97
2023-02-02T01:20:09.766Z,57.57
2023-02-02T01:22:38.630Z,57.20
2023-02-02T01:25:07.564Z,52.80
2023-02-02T01:27:36.036Z,51.77
2023-02-02T01:30:04.420Z,51.13
2023-02-02T01:32:33.220Z,49.20
2023-02-02T01:35:03.040Z,47.50
2023-02-02T01:37:31.434Z,48.53
2023-02-02T01:39:59.832Z,45.67
2023-02-02T01:42:28.306Z,42.80
2023-02-02T01:45:26.984Z,43.17
2023-02-02T01:47:58.311Z,37.17
2023-02-02T01:50:30.299Z,43.10
2023-02-02T01:53:00.574Z,41.07
2023-02-02T01:55:30.589Z,40.07
2023-02-02T01:57:59.800Z,37.80
2023-02-02T02:00:28.524Z,38.07
2023-02-02T02:02:58.762Z,38.77
2023-02-02T02:05:30.679Z,39.30
2023-02-02T02:08:04.551Z,38.30
2023-02-02T02:10:33.211Z,37.00
2023-02-02T02:13:01.699Z,35.43
2023-02-02T02:15:49.773Z,36.03
2023-02-02T02:18:24.566Z,34.50
2023-02-02T02:21:41.462Z,37.83
2023-02-02T02:24:54.573Z,36.10
2023-02-02T02:27:34.296Z,38.77
2023-02-02T02:30:13.349Z,38.17
2023-02-02T02:32:45.874Z,40.33
2023-02-02T02:35:19.395Z,39.23
2023-02-02T02:37:51.006Z,39.80
2023-02-02T02:40:24.241Z,39.77
2023-02-02T02:42:55.555Z,36.90
2023-02-02T02:45:24.832Z,38.60
2023-02-02T02:47:55.229Z,40.47
2023-02-02T02:50:24.248Z,39.80
2023-02-02T02:52:57.286Z,40.03
2023-02-02T02:55:26.512Z,37.87
2023-02-02T02:58:04.775Z,39.33
2023-02-02T03:00:37.934Z,38.53
2023-02-02T03:03:11.021Z,39.83
2023-02-02T03:05:43.402Z,39.10
2023-02-02T03:08:14.123Z,36.17
2023-02-02T03:10:43.462Z,35.33
2023-02-02T03:13:12.840Z,37.77
2023-02-02T03:15:42.519Z,36.43
2023-02-02T03:18:12.706Z,36.13
2023-02-02T03:20:41.276Z,34.93
2023-02-02T03:23:09.671Z,35.33
2023-02-02T03:25:38.595Z,35.63
2023-02-02T03:28:07.411Z,35.50
2023-02-02T03:30:36.395Z,36.97
2023-02-02T03:33:04.946Z,36.53
2023-02-02T03:35:35.058Z,34.97
2023-02-02T03:38:03.823Z,35.50
2023-02-02T03:40:32.254Z,37.63
2023-02-02T03:43:00.804Z,38.50
2023-02-02T03:45:29.310Z,36.00
2023-02-02T03:47:57.690Z,34.90
2023-02-02T03:50:26.323Z,36.30
2023-02-02T03:52:56.890Z,37.20
2023-02-02T03:55:25.624Z,33.53
2023-02-02T03:57:54.330Z,33.03
2023-02-02T04:00:23.137Z,35.40
2023-02-02T04:02:51.616Z,37.23
2023-02-02T04:05:20.043Z,33.90
2023-02-02T04:07:49.179Z,33.27
2023-02-02T04:10:19.620Z,35.67
2023-02-02T04:12:48.091Z,36.43
2023-02-02T04:15:16.644Z,33.77
2023-02-02T04:17:45.254Z,32.50
2023-02-02T04:20:14.149Z,35.83
2023-02-02T04:22:42.589Z,36.70
2023-02-02T04:25:11.059Z,36.97
2023-02-02T04:27:40.839Z,35.00
2023-02-02T04:30:10.201Z,35.60
2023-02-02T04:32:38.602Z,35.10
2023-02-02T04:35:07.287Z,34.73
2023-02-02T04:37:35.684Z,33.87
2023-02-02T04:40:04.085Z,36.47
2023-02-02T04:42:34.444Z,33.50
2023-02-02T04:45:04.574Z,36.50
2023-02-02T04:47:33.043Z,35.70
2023-02-02T04:50:01.514Z,35.40
2023-02-02T04:52:30.866Z,35.20
2023-02-02T04:54:59.265Z,34.63
2023-02-02T04:57:27.687Z,34.87
2023-02-02T04:59:56.105Z,35.07
2023-02-02T05:02:25.878Z,37.43
2023-02-02T05:04:54.320Z,35.67
2023-02-02T05:07:22.701Z,37.67
2023-02-02T05:09:51.108Z,36.93
2023-02-02T05:12:19.515Z,37.37
2023-02-02T05:14:47.986Z,36.53
2023-02-02T05:17:16.407Z,36.40
2023-02-02T05:19:46.236Z,36.67
2023-02-02T05:22:14.655Z,36.73
2023-02-02T05:24:43.058Z,38.13
2023-02-02T05:27:11.459Z,38.87
2023-02-02T05:29:39.883Z,35.83
2023-02-02T05:32:08.336Z,41.57
2023-02-02T05:34:36.785Z,40.63
2023-02-02T05:37:06.576Z,37.43
2023-02-02T05:39:35.016Z,37.27
2023-02-02T05:42:03.440Z,38.23
2023-02-02T05:44:32.019Z,36.40
2023-02-02T05:47:00.452Z,39.03
2023-02-02T05:49:28.975Z,34.87
2023-02-02T05:51:59.079Z,36.93
2023-02-02T05:54:28.837Z,36.40
2023-02-02T05:56:57.321Z,36.70
2023-02-02T05:59:25.724Z,40.90
2023-02-02T06:01:54.432Z,38.40
2023-02-02T06:04:23.118Z,35.97
2023-02-02T06:06:51.549Z,38.33
2023-02-02T06:09:19.997Z,36.47
2023-02-02T06:11:49.787Z,37.30
2023-02-02T06:14:18.667Z,40.80
2023-02-02T06:16:47.052Z,39.23
2023-02-02T06:19:15.470Z,36.10
2023-02-02T06:21:43.870Z,44.07
2023-02-02T06:24:12.281Z,37.33
2023-02-02T06:26:40.792Z,36.47
2023-02-02T06:29:13.687Z,38.93
2023-02-02T06:31:42.286Z,36.63
2023-02-02T06:34:13.597Z,36.33
2023-02-02T06:36:42.341Z,35.83
2023-02-02T06:39:10.798Z,34.90
2023-02-02T06:41:40.497Z,34.17
2023-02-02T06:44:10.451Z,35.17
2023-02-02T06:46:38.896Z,35.47
2023-02-02T06:49:07.292Z,33.97
2023-02-02T06:51:35.706Z,33.50
2023-02-02T06:54:04.635Z,35.83
2023-02-02T06:56:33.043Z,34.13
2023-02-02T06:59:01.443Z,33.93
2023-02-02T07:01:31.370Z,34.43
2023-02-02T07:03:59.841Z,33.37
2023-02-02T07:06:29.452Z,33.57
2023-02-02T07:09:02.894Z,33.37
2023-02-02T07:11:34.421Z,42.10
2023-02-02T07:14:03.445Z,42.03
2023-02-02T07:16:33.697Z,41.73
2023-02-02T07:19:02.140Z,42.97
2023-02-02T07:21:35.659Z,40.47
2023-02-02T07:24:04.627Z,41.53
2023-02-02T07:26:33.130Z,43.40
2023-02-02T07:29:01.577Z,42.20
2023-02-02T07:31:30.267Z,41.83
2023-02-02T07:34:00.166Z,43.70
2023-02-02T07:36:28.612Z,38.93
2023-02-02T07:38:57.545Z,43.83
2023-02-02T07:41:27.900Z,39.50
2023-02-02T07:43:56.308Z,42.17
2023-02-02T07:46:24.739Z,37.37
2023-02-02T07:48:56.086Z,42.10
2023-02-02T07:51:27.206Z,40.63
2023-02-02T07:53:58.463Z,38.70
2023-02-02T07:56:28.345Z,42.73
2023-02-02T07:58:57.527Z,40.43
2023-02-02T08:01:26.574Z,40.97
2023-02-02T08:03:55.909Z,37.97
2023-02-02T08:06:26.595Z,37.63
2023-02-02T08:08:55.030Z,34.43
2023-02-02T08:11:24.833Z,37.83
2023-02-02T08:13:53.997Z,37.93
2023-02-02T08:16:22.778Z,38.20
2023-02-02T08:18:51.651Z,35.43
2023-02-02T08:21:20.255Z,39.63
2023-02-02T08:23:50.210Z,38.77
2023-02-02T08:26:19.654Z,39.67
2023-02-02T08:28:49.080Z,40.37
2023-02-02T08:31:18.947Z,44.43
2023-02-02T08:33:47.765Z,42.03
2023-02-02T08:36:16.837Z,43.80
2023-02-02T08:38:45.337Z,45.03
2023-02-02T08:41:16.583Z,49.03
2023-02-02T08:43:45.297Z,44.13
2023-02-02T08:46:15.397Z,47.20
2023-02-02T08:48:43.983Z,48.67
2023-02-02T08:51:14.421Z,48.37
2023-02-02T08:53:42.927Z,50.23
2023-02-02T08:56:12.710Z,50.90
2023-02-02T08:58:42.489Z,51.13
2023-02-02T09:01:15.134Z,52.83
2023-02-02T09:03:43.584Z,55.07
2023-02-02T09:06:13.087Z,50.20
2023-02-02T09:08:41.843Z,49.80
2023-02-02T09:11:11.629Z,62.10
2023-02-02T09:13:40.789Z,56.90
2023-02-02T09:16:11.906Z,62.73
2023-02-02T09:18:40.524Z,67.80
2023-02-02T09:21:10.704Z,62.50
2023-02-02T09:23:40.340Z,65.30
2023-02-02T09:26:12.385Z,66.27
2023-02-02T09:28:41.055Z,70.07
2023-02-02T09:31:11.130Z,75.10
2023-02-02T09:33:40.079Z,73.73
2023-02-02T09:36:09.458Z,72.67
2023-02-02T09:38:37.949Z,75.03
2023-02-02T09:41:18.009Z,66.73
2023-02-02T09:43:50.025Z,76.73
2023-02-02T09:46:25.819Z,74.17
2023-02-02T09:48:58.771Z,78.50
2023-02-02T09:51:30.435Z,78.63
2023-02-02T09:54:01.656Z,81.50
2023-02-02T09:56:34.243Z,84.50
2023-02-02T09:59:18.742Z,88.40
2023-02-02T10:01:49.754Z,83.20
2023-02-02T10:04:20.607Z,76.47
2023-02-02T10:06:50.242Z,71.63
2023-02-02T10:09:26.520Z,69.90
2023-02-02T10:11:57.052Z,78.83
2023-02-02T10:14:27.314Z,82.77
2023-02-02T10:16:58.975Z,87.87
2023-02-02T10:19:30.768Z,90.47
2023-02-02T10:22:06.494Z,86.67
2023-02-02T10:24:36.361Z,97.17
2023-02-02T10:27:07.136Z,92.43
2023-02-02T10:29:48.976Z,89.83
2023-02-02T10:32:23.641Z,89.47
2023-02-02T10:35:13.457Z,89.70
2023-02-02T10:37:50.248Z,103.47
2023-02-02T10:40:22.757Z,95.23
2023-02-02T10:43:15.484Z,93.77
2023-02-02T10:45:45.339Z,97.57
2023-02-02T10:48:18.415Z,102.67
2023-02-02T10:50:49.929Z,105.27
2023-02-02T10:53:18.574Z,101.67
2023-02-02T10:55:51.534Z,104.63
2023-02-02T10:58:24.789Z,98.83
2023-02-02T11:00:54.667Z,102.57
2023-02-02T11:03:25.542Z,101.73
2023-02-02T11:06:07.970Z,91.93
2023-02-02T11:08:37.731Z,80.10
2023-02-02T11:11:14.869Z,83.97
2023-02-02T11:13:44.439Z,97.63
2023-02-02T11:16:23.354Z,98.20
2023-02-02T11:18:53.316Z,99.20
2023-02-02T11:21:23.005Z,104.03
2023-02-02T11:23:58.806Z,106.43
2023-02-02T11:26:27.390Z,101.40
2023-02-02T11:28:58.300Z,107.93
2023-02-02T11:31:37.688Z,111.10
2023-02-02T11:34:20.413Z,106.50
2023-02-02T11:37:05.588Z,99.27
2023-02-02T11:39:34.000Z,99.50
2023-02-02T11:42:07.545Z,106.03
2023-02-02T11:44:36.811Z,107.83
2023-02-02T11:47:06.451Z,101.40
2023-02-02T11:49:39.468Z,99.80
2023-02-02T11:52:09.191Z,100.47
2023-02-02T11:54:39.571Z,105.00
2023-02-02T11:57:09.997Z,110.33
2023-02-02T11:59:39.342Z,104.83
2023-02-02T12:02:24.037Z,104.97
2023-02-02T12:04:54.990Z,105.73
2023-02-02T12:07:29.083Z,102.07
2023-02-02T12:09:59.747Z,106.30
2023-02-02T12:12:36.796Z,103.60
2023-02-02T12:15:08.457Z,99.80
2023-02-02T12:17:40.563Z,99.53
2023-02-02T12:20:18.285Z,98.83
2023-02-02T12:22:54.562Z,94.50
2023-02-02T12:25:33.959Z,101.47
2023-02-02T12:28:11.247Z,96.03
2023-02-02T12:30:44.387Z,99.03
2023-02-02T12:33:17.185Z,97.93
2023-02-02T12:36:03.213Z,95.80
2023-02-02T12:38:44.372Z,96.73
2023-02-02T12:41:25.442Z,89.20
2023-02-02T12:43:59.303Z,71.17
2023-02-02T12:46:34.906Z,62.73
2023-02-02T12:49:09.921Z,92.20
2023-02-02T12:51:47.752Z,91.43
2023-02-02T12:54:35.136Z,92.83
2023-02-02T12:57:16.207Z,93.43
2023-02-02T13:00:03.044Z,96.53
2023-02-02T13:02:35.588Z,96.30
2023-02-02T13:05:11.205Z,101.63
2023-02-02T13:07:42.250Z,95.07
2023-02-02T13:10:24.510Z,93.57
2023-02-02T13:12:54.926Z,95.87
2023-02-02T13:15:24.297Z,91.83
2023-02-02T13:17:55.213Z,94.67
2023-02-02T13:20:27.678Z,93.97
2023-02-02T13:22:59.216Z,96.03
2023-02-02T13:25:32.342Z,100.70
2023-02-02T13:28:01.613Z,94.67
2023-02-02T13:30:32.472Z,94.97
2023-02-02T13:33:02.606Z,75.47
2023-02-02T13:35:33.246Z,85.13
2023-02-02T13:38:06.191Z,92.33
2023-02-02T13:40:36.986Z,90.30
2023-02-02T13:43:11.015Z,97.00
2023-02-02T13:45:44.327Z,94.80
2023-02-02T13:48:18.461Z,95.30
2023-02-02T13:50:53.259Z,95.90
2023-02-02T13:53:33.581Z,94.07
2023-02-02T13:56:12.760Z,75.07
2023-02-02T13:58:51.985Z,89.37
2023-02-02T14:01:21.232Z,94.80
2023-02-02T14:03:53.909Z,95.57
2023-02-02T14:06:23.385Z,100.93
2023-02-02T14:08:54.562Z,102.67
2023-02-02T14:11:29.541Z,99.40
2023-02-02T14:14:17.997Z,95.33
2023-02-02T14:16:56.132Z,90.90
2023-02-02T14:19:43.412Z,95.17
2023-02-02T14:22:30.319Z,102.47
2023-02-02T14:25:00.114Z,97.43
2023-02-02T14:27:58.847Z,100.77
2023-02-02T14:30:34.128Z,94.13
2023-02-02T14:33:25.929Z,96.07
2023-02-02T14:36:01.447Z,89.80
2023-02-02T14:38:44.380Z,71.60
2023-02-02T14:41:36.911Z,93.63
2023-02-02T14:44:05.369Z,94.20
2023-02-02T14:46:40.539Z,92.20
2023-02-02T14:49:13.168Z,92.30
2023-02-02T14:51:47.942Z,92.23
2023-02-02T14:54:21.327Z,90.20
2023-02-02T14:56:51.005Z,95.10
2023-02-02T14:59:21.152Z,69.73
2023-02-02T15:01:58.600Z,85.30
2023-02-02T15:04:28.713Z,91.03
2023-02-02T15:06:59.548Z,86.40
2023-02-02T15:09:39.010Z,92.03
2023-02-02T15:12:31.465Z,86.37
2023-02-02T15:15:05.967Z,91.23
2023-02-02T15:17:44.727Z,65.70
2023-02-02T15:20:17.923Z,86.20
2023-02-02T15:22:50.572Z,88.00
2023-02-02T15:25:21.334Z,88.93
2023-02-02T15:27:56.976Z,88.47
2023-02-02T15:30:26.130Z,89.77
2023-02-02T15:32:57.092Z,88.27
2023-02-02T15:35:27.058Z,70.07
2023-02-02T15:37:58.954Z,86.83
2023-02-02T15:40:28.577Z,85.90
2023-02-02T15:42:59.069Z,88.47
2023-02-02T15:45:41.548Z,88.63
2023-02-02T15:48:19.016Z,92.73
2023-02-02T15:50:47.727Z,91.97
2023-02-02T15:53:20.734Z,94.60
2023-02-02T15:55:49.328Z,87.70
2023-02-02T15:58:24.808Z,95.47
2023-02-02T16:00:57.573Z,99.70
2023-02-02T16:03:28.656Z,96.13
2023-02-02T16:05:58.454Z,89.93
2023-02-02T16:08:28.599Z,100.37
2023-02-02T16:11:04.751Z,95.63
2023-02-02T16:13:33.655Z,99.00
2023-02-02T16:16:02.948Z,94.73
2023-02-02T16:18:32.868Z,95.03
2023-02-02T16:21:02.970Z,106.47
2023-02-02T16:23:33.146Z,99.20
2023-02-02T16:26:02.468Z,105.67
2023-02-02T16:28:30.979Z,103.87
2023-02-02T16:31:01.170Z,100.50
2023-02-02T16:33:31.194Z,105.20
2023-02-02T16:36:01.068Z,105.40
2023-02-02T16:38:33.200Z,104.10
2023-02-02T16:41:05.560Z,102.87
2023-02-02T16:43:34.284Z,98.87
2023-02-02T16:46:04.824Z,104.93
2023-02-02T16:48:35.041Z,99.30
2023-02-02T16:51:10.378Z,104.63
2023-02-02T16:53:39.109Z,103.77
2023-02-02T16:56:08.933Z,108.27
2023-02-02T16:58:40.315Z,108.50
2023-02-02T17:01:16.520Z,103.87
2023-02-02T17:03:51.530Z,113.33
2023-02-02T17:06:29.578Z,108.33
2023-02-02T17:09:15.180Z,100.70
2023-02-02T17:11:56.453Z,101.07
2023-02-02T17:14:28.771Z,100.73
2023-02-02T17:16:57.229Z,96.20
2023-02-02T17:19:26.495Z,95.03
2023-02-02T17:21:56.712Z,98.10
2023-02-02T17:24:25.147Z,100.53
2023-02-02T17:26:53.600Z,97.30
2023-02-02T17:29:22.889Z,94.50
2023-02-02T17:31:52.098Z,94.63
2023-02-02T17:34:20.614Z,95.03
2023-02-02T17:36:49.032Z,95.00
2023-02-02T17:39:18.823Z,95.67
2023-02-02T17:41:48.715Z,96.20
2023-02-02T17:44:17.126Z,96.57
2023-02-02T17:46:45.504Z,97.33
2023-02-02T17:49:13.916Z,98.30
2023-02-02T17:51:43.444Z,95.27
2023-02-02T17:54:13.059Z,97.47
2023-02-02T17:56:42.954Z,98.40
2023-02-02T17:59:12.331Z,97.43
2023-02-02T18:01:42.586Z,98.33
2023-02-02T18:04:12.985Z,97.90
2023-02-02T18:06:41.416Z,95.20
2023-02-02T18:09:10.944Z,98.00
2023-02-02T18:11:42.148Z,94.77
2023-02-02T18:14:12.425Z,99.10
2023-02-02T18:16:40.818Z,96.87
2023-02-02T18:19:09.496Z,98.63
2023-02-02T18:21:37.945Z,96.83
2023-02-02T18:24:06.444Z,100.40
2023-02-02T18:26:35.600Z,100.13
2023-02-02T18:29:04.122Z,97.67
2023-02-02T18:31:34.414Z,96.13
2023-02-02T18:34:02.868Z,100.33
2023-02-02T18:36:31.706Z,99.60
2023-02-02T18:39:00.264Z,99.63
2023-02-02T18:41:29.133Z,100.20
2023-02-02T18:43:57.544Z,96.50
2023-02-02T18:46:26.788Z,99.57
2023-02-02T18:48:56.923Z,95.60
2023-02-02T18:51:25.386Z,97.17
2023-02-02T18:53:59.708Z,99.10
2023-02-02T18:56:28.467Z,98.97
2023-02-02T18:58:57.141Z,96.97
2023-02-02T19:01:26.470Z,97.30
2023-02-02T19:03:57.903Z,96.17
2023-02-02T19:06:43.953Z,96.57
2023-02-02T19:09:13.750Z,94.83
2023-02-02T19:11:44.485Z,96.70
2023-02-02T19:14:14.965Z,92.80
2023-02-02T19:16:44.346Z,97.50
2023-02-02T19:19:19.228Z,92.57
2023-02-02T19:21:47.619Z,94.73
2023-02-02T19:24:16.233Z,94.37
2023-02-02T19:26:47.195Z,91.63
2023-02-02T19:29:16.895Z,91.23
2023-02-02T19:31:45.862Z,90.40
2023-02-02T19:34:19.155Z,90.07
2023-02-02T19:36:49.341Z,91.47
2023-02-02T19:39:19.287Z,87.27
2023-02-02T19:41:47.899Z,88.13
2023-02-02T19:44:19.146Z,87.43
2023-02-02T19:46:48.734Z,87.77
2023-02-02T19:49:20.237Z,85.97
2023-02-02T19:51:49.230Z,87.27
2023-02-02T19:54:27.202Z,84.27
2023-02-02T19:56:57.404Z,85.53
2023-02-02T19:59:27.343Z,82.87
2023-02-02T20:01:56.010Z,86.40
2023-02-02T20:04:25.792Z,89.87
2023-02-02T20:06:59.467Z,87.17
2023-02-02T20:09:31.728Z,85.60
2023-02-02T20:12:01.092Z,86.00
2023-02-02T20:14:30.611Z,88.77
2023-02-02T20:17:00.975Z,91.50
2023-02-02T20:19:35.247Z,88.93
2023-02-02T20:22:04.493Z,93.13
2023-02-02T20:24:34.211Z,89.03
2023-02-02T20:27:04.862Z,92.47
2023-02-02T20:29:39.354Z,96.20
2023-02-02T20:32:13.129Z,90.80
2023-02-02T20:34:45.506Z,93.27
2023-02-02T20:37:18.250Z,93.33
2023-02-02T20:39:48.312Z,91.00
2023-02-02T20:42:17.016Z,93.37
2023-02-02T20:44:45.430Z,92.50
2023-02-02T20:47:14.079Z,89.40
2023-02-02T20:49:44.050Z,88.77
2023-02-02T20:52:18.243Z,91.80
2023-02-02T20:54:46.667Z,89.77
2023-02-02T20:57:15.144Z,87.17
2023-02-02T20:59:43.551Z,85.87
2023-02-02T21:02:18.808Z,83.43
2023-02-02T21:04:49.651Z,81.13
2023-02-02T21:07:19.571Z,88.13
2023-02-02T21:09:48.614Z,80.40
2023-02-02T21:12:17.302Z,78.57
2023-02-02T21:14:46.256Z,81.83
2023-02-02T21:17:16.021Z,86.47
2023-02-02T21:19:44.822Z,77.53
2023-02-02T21:22:15.158Z,77.53
2023-02-02T21:24:43.580Z,80.97
2023-02-02T21:27:12.064Z,82.97
2023-02-02T21:29:40.568Z,78.30
2023-02-02T21:32:09.166Z,87.87
2023-02-02T21:34:38.144Z,81.00
2023-02-02T21:37:13.688Z,82.27
2023-02-02T21:39:48.791Z,82.70
2023-02-02T21:42:18.565Z,92.47
2023-02-02T21:44:49.749Z,83.53
2023-02-02T21:47:27.571Z,88.93
2023-02-02T21:49:56.740Z,81.83
2023-02-02T21:52:25.463Z,85.57
2023-02-02T21:54:55.234Z,85.73
2023-02-02T21:57:24.407Z,83.20
2023-02-02T21:59:55.860Z,86.10
2023-02-02T22:02:36.891Z,95.23
2023-02-02T22:05:14.616Z,91.50
2023-02-02T22:07:43.706Z,87.43
2023-02-02T22:10:24.483Z,87.67
2023-02-02T22:12:53.303Z,90.47
2023-02-02T22:15:24.397Z,90.93
2023-02-02T22:17:52.778Z,88.87
2023-02-02T22:20:29.817Z,94.23
2023-02-02T22:22:58.216Z,80.27
2023-02-02T22:25:33.520Z,97.53
2023-02-02T22:28:03.732Z,100.37
2023-02-02T22:30:35.461Z,87.67
2023-02-02T22:33:04.060Z,96.20
2023-02-02T22:35:32.447Z,90.20
2023-02-02T22:38:01.237Z,82.67
2023-02-02T22:40:31.285Z,88.83
2023-02-02T22:43:00.785Z,87.73
2023-02-02T22:45:29.656Z,93.93
2023-02-02T22:47:58.033Z,92.70
2023-02-02T22:50:27.807Z,105.13
2023-02-02T22:52:56.558Z,95.57
2023-02-02T22:55:24.980Z,97.10
2023-02-02T22:57:54.778Z,108.63
2023-02-02T23:00:24.460Z,96.03
2023-02-02T23:02:53.115Z,93.93
2023-02-02T23:05:22.612Z,89.23
2023-02-02T23:07:51.511Z,98.67
2023-02-02T23:10:20.328Z,94.50
2023-02-02T23:12:49.329Z,92.43
2023-02-02T23:15:19.795Z,93.13
2023-02-02T23:17:48.419Z,94.40
2023-02-02T23:20:16.925Z,90.43
2023-02-02T23:22:45.366Z,100.97
2023-02-02T23:25:14.068Z,104.97
2023-02-02T23:27:42.700Z,110.07
2023-02-02T23:30:11.722Z,100.37
2023-02-02T23:32:41.920Z,97.37
2023-02-02T23:35:11.172Z,105.80
2023-02-02T23:37:40.287Z,103.93
2023-02-02T23:40:09.220Z,99.90
2023-02-02T23:42:37.625Z,99.23
2023-02-02T23:45:06.331Z,94.70
2023-02-02T23:47:34.987Z,96.83
2023-02-02T23:50:06.789Z,96.50
2023-02-02T23:52:36.343Z,92.47
2023-02-02T23:55:05.267Z,96.33
2023-02-02T23:57:36.552Z,91.27
